createdAt,value
2022-11-06T00:03:27.491Z,5.43
2022-11-06T00:08:38.167Z,4.70
2022-11-06T00:13:40.252Z,4.88
2022-11-06T00:18:42.331Z,4.60
2022-11-06T00:23:44.674Z,5.38
2022-11-06T00:28:46.152Z,7.25
2022-11-06T00:33:47.971Z,6.03
2022-11-06T00:38:53.373Z,4.70
2022-11-06T00:43:58.109Z,5.30
2022-11-06T00:48:59.667Z,4.40
2022-11-06T00:54:06.386Z,5.45
2022-11-06T00:59:10.453Z,4.87
2022-11-06T01:04:14.576Z,4.47
2022-11-06T01:09:18.977Z,4.70
2022-11-06T01:14:22.129Z,5.13
2022-11-06T01:19:23.886Z,5.07
2022-11-06T01:24:27.453Z,4.70
2022-11-06T01:29:29.156Z,4.75
2022-11-06T01:34:30.746Z,4.95
2022-11-06T01:39:32.305Z,4.47
2022-11-06T01:44:33.709Z,7.03
2022-11-06T01:49:37.903Z,4.43
2022-11-06T01:54:41.076Z,5.70
2022-11-06T01:59:44.362Z,6.10
2022-11-06T02:04:49.064Z,4.97
2022-11-06T02:09:50.576Z,7.55
2022-11-06T02:15:13.289Z,6.28
2022-11-06T02:20:26.571Z,5.53
2022-11-06T02:26:04.614Z,6.07
2022-11-06T02:31:11.356Z,4.65
2022-11-06T02:36:17.363Z,5.43
2022-11-06T02:41:23.041Z,5.13
2022-11-06T02:46:34.733Z,5.63
2022-11-06T02:51:43.822Z,4.68
2022-11-06T02:56:46.459Z,5.63
2022-11-06T03:02:09.103Z,5.40
2022-11-06T03:07:25.375Z,5.65
2022-11-06T03:12:32.652Z,5.97
2022-11-06T03:17:44.839Z,7.25
2022-11-06T03:22:49.020Z,5.10
2022-11-06T03:27:59.535Z,4.85
2022-11-06T03:33:38.382Z,5.03
2022-11-06T03:38:52.046Z,4.93
2022-11-06T03:43:56.508Z,5.43
2022-11-06T03:49:04.041Z,5.25
2022-11-06T03:54:14.260Z,4.78
2022-11-06T03:59:19.175Z,4.80
2022-11-06T04:04:34.050Z,4.37
2022-11-06T04:09:56.757Z,5.15
2022-11-06T04:14:59.308Z,6.78
2022-11-06T04:20:03.445Z,5.37
2022-11-06T04:25:40.635Z,5.83
2022-11-06T04:30:49.812Z,4.68
2022-11-06T04:36:02.241Z,5.10
2022-11-06T04:41:34.579Z,4.80
2022-11-06T04:46:45.615Z,5.57
2022-11-06T04:51:47.530Z,5.27
2022-11-06T04:56:49.116Z,6.10
2022-11-06T05:01:50.851Z,5.25
2022-11-06T05:06:52.498Z,5.85
2022-11-06T05:11:54.072Z,6.13
2022-11-06T05:16:55.547Z,5.20
2022-11-06T05:22:15.724Z,6.30
2022-11-06T05:27:17.246Z,5.53
2022-11-06T05:32:18.791Z,5.63
2022-11-06T05:37:20.343Z,5.80
2022-11-06T05:42:22.006Z,6.50
2022-11-06T05:47:23.505Z,6.15
2022-11-06T05:52:25.111Z,5.82
2022-11-06T05:57:26.621Z,5.78
2022-11-06T06:02:28.274Z,7.77
2022-11-06T06:07:30.083Z,6.13
2022-11-06T06:12:31.624Z,7.95
2022-11-06T06:17:33.415Z,7.23
2022-11-06T06:22:36.079Z,6.00
2022-11-06T06:27:37.766Z,7.20
2022-11-06T06:32:39.319Z,7.70
2022-11-06T06:37:40.881Z,7.53
2022-11-06T06:42:42.387Z,6.13
2022-11-06T06:47:43.936Z,7.07
2022-11-06T06:52:45.560Z,6.73
2022-11-06T06:57:47.049Z,6.53
2022-11-06T07:02:48.554Z,7.63
2022-11-06T07:07:50.071Z,6.93
2022-11-06T07:12:51.581Z,8.57
2022-11-06T07:17:53.137Z,7.00
2022-11-06T07:22:54.630Z,7.32
2022-11-06T07:28:02.789Z,7.20
2022-11-06T07:33:05.577Z,7.25
2022-11-06T07:38:07.447Z,7.40
2022-11-06T07:43:10.758Z,8.60
2022-11-06T07:48:12.497Z,7.43
2022-11-06T07:53:14.490Z,7.00
2022-11-06T07:58:16.829Z,6.80
2022-11-06T08:03:19.082Z,8.68
2022-11-06T08:08:20.611Z,9.52
2022-11-06T08:13:22.206Z,8.40
2022-11-06T08:18:23.745Z,7.35
2022-11-06T08:23:25.446Z,8.07
2022-11-06T08:28:27.725Z,7.90
2022-11-06T08:33:29.226Z,8.33
2022-11-06T08:38:31.023Z,8.23
2022-11-06T08:43:32.556Z,8.65
2022-11-06T08:48:34.156Z,7.55
2022-11-06T08:53:35.701Z,8.90
2022-11-06T08:58:37.278Z,8.00
2022-11-06T09:03:38.752Z,8.90
2022-11-06T09:08:40.241Z,10.02
2022-11-06T09:13:42.022Z,8.10
2022-11-06T09:18:44.033Z,9.70
2022-11-06T09:23:47.056Z,8.70
2022-11-06T09:28:48.629Z,8.43
2022-11-06T09:33:50.999Z,7.95
2022-11-06T09:38:52.528Z,8.35
2022-11-06T09:44:10.714Z,8.80
2022-11-06T09:49:18.193Z,8.82
2022-11-06T09:54:20.198Z,8.27
2022-11-06T09:59:22.119Z,8.23
2022-11-06T10:04:41.219Z,9.02
2022-11-06T10:09:42.780Z,7.40
2022-11-06T10:14:56.721Z,6.50
2022-11-06T10:20:12.594Z,6.47
2022-11-06T10:25:19.835Z,8.13
2022-11-06T10:30:21.505Z,6.90
2022-11-06T10:35:26.397Z,7.20
2022-11-06T10:40:30.306Z,7.82
2022-11-06T10:45:32.404Z,4.95
2022-11-06T10:50:43.124Z,5.65
2022-11-06T10:55:44.571Z,5.00
2022-11-06T11:00:46.199Z,4.63
2022-11-06T11:05:47.815Z,4.43
2022-11-06T11:11:04.286Z,6.80
2022-11-06T11:16:13.511Z,4.25
2022-11-06T11:21:27.914Z,3.88
2022-11-06T11:26:31.005Z,3.00
2022-11-06T11:31:35.579Z,3.78
2022-11-06T11:36:52.381Z,3.30
2022-11-06T11:41:54.281Z,2.88
2022-11-06T11:46:55.753Z,3.28
2022-11-06T11:52:02.381Z,3.28
2022-11-06T11:57:07.743Z,2.92
2022-11-06T12:02:27.391Z,2.55
2022-11-06T12:07:35.353Z,3.00
2022-11-06T12:12:36.963Z,3.53
2022-11-06T12:17:39.619Z,2.33
2022-11-06T12:22:44.750Z,5.53
2022-11-06T12:27:55.313Z,2.60
2022-11-06T12:33:11.439Z,4.13
2022-11-06T12:38:31.921Z,5.40
2022-11-06T12:43:39.055Z,2.63
2022-11-06T12:48:53.061Z,3.08
2022-11-06T12:53:59.760Z,2.35
2022-11-06T12:59:09.959Z,2.50
2022-11-06T13:04:21.416Z,3.25
2022-11-06T13:09:30.929Z,4.00
2022-11-06T13:14:34.430Z,3.38
2022-11-06T13:19:48.258Z,3.00
2022-11-06T13:25:17.108Z,5.43
2022-11-06T13:30:20.841Z,3.53
2022-11-06T13:35:23.084Z,3.00
2022-11-06T13:40:36.100Z,4.15
2022-11-06T13:45:49.184Z,4.55
2022-11-06T13:51:01.711Z,3.97
2022-11-06T13:56:03.223Z,3.97
2022-11-06T14:01:23.668Z,4.85
2022-11-06T14:06:27.309Z,5.75
2022-11-06T14:11:31.938Z,6.60
2022-11-06T14:16:38.140Z,5.35
2022-11-06T14:21:39.526Z,7.60
2022-11-06T14:26:41.737Z,8.25
2022-11-06T14:32:00.344Z,7.60
2022-11-06T14:37:20.247Z,9.57
2022-11-06T14:42:27.272Z,10.18
2022-11-06T14:47:41.869Z,11.27
2022-11-06T14:52:52.500Z,9.95
2022-11-06T14:57:55.090Z,9.93
2022-11-06T15:02:56.613Z,11.13
2022-11-06T15:08:05.059Z,10.02
2022-11-06T15:13:22.834Z,10.65
2022-11-06T15:18:25.415Z,9.90
2022-11-06T15:23:53.180Z,10.40
2022-11-06T15:29:17.177Z,10.60
2022-11-06T15:34:30.609Z,10.77
2022-11-06T15:39:39.246Z,10.25
2022-11-06T15:44:42.234Z,10.00
2022-11-06T15:49:43.718Z,10.32
2022-11-06T15:54:45.466Z,10.23
2022-11-06T15:59:47.040Z,10.98
2022-11-06T16:04:49.296Z,10.80
2022-11-06T16:09:51.725Z,10.30
2022-11-06T16:14:53.351Z,11.27
2022-11-06T16:19:57.312Z,12.45
2022-11-06T16:25:02.060Z,12.23
2022-11-06T16:30:04.780Z,12.25
2022-11-06T16:35:35.699Z,12.73
2022-11-06T16:40:50.403Z,12.55
2022-11-06T16:46:08.023Z,11.20
2022-11-06T16:51:12.021Z,11.80
2022-11-06T16:56:14.141Z,12.02
2022-11-06T17:01:20.447Z,11.90
2022-11-06T17:06:28.322Z,11.93
2022-11-06T17:11:29.858Z,14.18
2022-11-06T17:16:45.018Z,13.27
2022-11-06T17:21:47.687Z,13.43
2022-11-06T17:26:53.126Z,12.52
2022-11-06T17:31:55.798Z,13.20
2022-11-06T17:36:57.354Z,13.90
2022-11-06T17:41:58.861Z,14.57
2022-11-06T17:47:00.415Z,13.43
2022-11-06T17:52:01.922Z,13.98
2022-11-06T17:57:05.379Z,13.63
2022-11-06T18:02:07.452Z,14.88
2022-11-06T18:07:09.544Z,14.88
2022-11-06T18:12:13.834Z,12.65
2022-11-06T18:17:15.387Z,14.52
2022-11-06T18:22:16.930Z,13.70
2022-11-06T18:27:18.446Z,16.40
2022-11-06T18:32:19.976Z,14.88
2022-11-06T18:37:21.530Z,16.02
2022-11-06T18:42:23.005Z,15.95
2022-11-06T18:47:24.527Z,14.43
2022-11-06T18:52:51.677Z,17.85
2022-11-06T18:57:47.520Z,13.82
2022-11-06T19:02:49.269Z,15.13
2022-11-06T19:07:55.003Z,14.68
2022-11-06T19:12:59.807Z,14.05
2022-11-06T19:18:01.467Z,12.77
2022-11-06T19:23:03.005Z,14.23
2022-11-06T19:28:04.838Z,13.45
2022-11-06T19:33:06.416Z,13.27
2022-11-06T19:38:07.926Z,12.98
2022-11-06T19:43:09.578Z,12.30
2022-11-06T19:48:11.110Z,13.77
2022-11-06T19:53:16.757Z,11.85
2022-11-06T19:58:19.679Z,11.82
2022-11-06T20:03:21.341Z,12.65
2022-11-06T20:08:22.904Z,11.57
2022-11-06T20:13:24.472Z,11.02
2022-11-06T20:18:25.983Z,11.38
2022-11-06T20:23:28.723Z,11.27
2022-11-06T20:28:30.470Z,11.80
2022-11-06T20:33:32.043Z,11.27
2022-11-06T20:38:33.546Z,11.23
2022-11-06T20:43:35.092Z,12.00
2022-11-06T20:48:37.380Z,10.85
2022-11-06T20:53:39.345Z,11.40
2022-11-06T20:58:41.073Z,12.88
2022-11-06T21:03:42.691Z,11.85
2022-11-06T21:08:44.759Z,11.23
2022-11-06T21:13:50.166Z,13.20
2022-11-06T21:18:52.454Z,12.88
2022-11-06T21:23:55.292Z,13.15
2022-11-06T21:28:57.345Z,11.20
2022-11-06T21:34:01.322Z,12.82
2022-11-06T21:39:06.507Z,13.90
2022-11-06T21:44:11.636Z,12.55
2022-11-06T21:49:13.741Z,12.80
2022-11-06T21:54:33.996Z,10.85
2022-11-06T21:59:40.474Z,11.68
2022-11-06T22:04:43.071Z,12.40
2022-11-06T22:09:44.598Z,12.57
2022-11-06T22:14:46.135Z,10.85
2022-11-06T22:19:47.750Z,10.05
2022-11-06T22:24:49.279Z,12.50
2022-11-06T22:29:50.805Z,10.38
2022-11-06T22:34:52.466Z,10.70
2022-11-06T22:39:53.990Z,12.70
2022-11-06T22:44:55.527Z,9.80
2022-11-06T22:49:57.166Z,9.20
2022-11-06T22:54:58.668Z,9.82
2022-11-06T23:00:00.174Z,11.48
2022-11-06T23:05:01.639Z,10.40
2022-11-06T23:10:03.644Z,9.10
2022-11-06T23:15:05.844Z,9.88
2022-11-06T23:20:07.762Z,9.43
2022-11-06T23:25:10.183Z,11.65
2022-11-06T23:30:12.978Z,9.23
2022-11-06T23:35:16.881Z,9.20
2022-11-06T23:40:18.792Z,9.30
2022-11-06T23:45:39.278Z,9.73
2022-11-06T23:50:41.515Z,11.25
2022-11-06T23:55:43.005Z,9.05
